Time;durP1;ratioP1;P1;durP2;ratioP2;P2;SDS_P1;SDS_P2;PMS_P1;PMS_P2;Temp;Humidity;BMP_temperature;BMP_pressure;BME280_temperature;BME280_humidity;BME280_pressure;Samples;Min_cycle;Max_cycle;Signal;HPM_P1;HPM_P2
2021/04/08 00:02:09;;;;;;;9.55;2.88;;;;;;;-141.50;100.00;63355.56;5077316;28;20052;-78
2021/04/08 00:04:35;;;;;;;13.82;3.58;;;;;;;-141.50;100.00;63355.56;5042196;28;20045;-78
2021/04/08 00:07:02;;;;;;;12.13;3.00;;;;;;;-141.50;100.00;63355.56;5055591;28;20040;-79
2021/04/08 00:09:28;;;;;;;10.27;3.25;;;;;;;-141.50;100.00;63355.56;5074811;28;20139;-78
2021/04/08 00:11:56;;;;;;;10.30;3.30;;;;;;;-141.50;100.00;63355.56;5039500;28;20044;-78
2021/04/08 00:14:23;;;;;;;9.75;3.25;;;;;;;-141.50;100.00;63355.56;5055735;28;20052;-77
2021/04/08 00:16:50;;;;;;;14.32;3.58;;;;;;;-141.50;100.00;63355.56;5073328;28;20048;-77
2021/04/08 00:19:16;;;;;;;15.20;3.53;;;;;;;-141.50;100.00;63355.56;5057157;28;20044;-77
2021/04/08 00:21:44;;;;;;;20.05;3.35;;;;;;;-141.50;100.00;63355.56;5075048;28;20040;-77
2021/04/08 00:24:11;;;;;;;10.10;2.80;;;;;;;-141.50;100.00;63355.56;5075351;28;20044;-78
2021/04/08 00:26:37;;;;;;;17.27;3.05;;;;;;;-141.50;100.00;63355.56;5075387;28;20428;-78
2021/04/08 00:29:03;;;;;;;15.88;2.60;;;;;;;-141.50;100.00;63355.56;5057410;28;20040;-78
2021/04/08 00:31:29;;;;;;;9.00;2.30;;;;;;;-141.50;100.00;63355.56;5054585;28;20055;-78
2021/04/08 00:34:01;;;;;;;14.75;2.30;;;;;;;-141.50;100.00;63355.56;5037662;28;20044;-78
2021/04/08 00:36:29;;;;;;;14.73;2.95;;;;;;;-141.50;100.00;63355.56;5053782;28;20332;-79
2021/04/08 00:38:55;;;;;;;9.68;2.25;;;;;;;-141.50;100.00;63355.56;5072412;28;20072;-78
2021/04/08 00:41:23;;;;;;;10.00;2.58;;;;;;;-141.50;100.00;63355.56;5067931;23;20103;-77
2021/04/08 00:43:49;;;;;;;10.02;1.48;;;;;;;-141.50;100.00;63355.56;5067896;28;20442;-77
2021/04/08 00:46:15;;;;;;;13.18;2.22;;;;;;;-141.50;100.00;63355.56;5068965;28;20044;-77
2021/04/08 00:48:41;;;;;;;11.32;2.05;;;;;;;-141.50;100.00;63355.56;5070183;28;20049;-78
2021/04/08 00:51:07;;;;;;;8.07;1.90;;;;;;;-141.50;100.00;63355.56;5070622;28;20225;-77
2021/04/08 00:53:35;;;;;;;17.40;2.58;;;;;;;-141.50;100.00;63355.56;5069209;28;20044;-77
2021/04/08 00:56:02;;;;;;;7.57;1.67;;;;;;;-141.50;100.00;63355.56;5068862;28;20059;-77
2021/04/08 00:58:31;;;;;;;17.92;2.10;;;;;;;-141.50;100.00;63355.56;5053011;28;20112;-77
2021/04/08 01:00:57;;;;;;;9.43;1.65;;;;;;;-141.50;100.00;63355.56;5074634;28;20041;-77
2021/04/08 01:03:24;;;;;;;9.93;1.80;;;;;;;-141.50;100.00;63355.56;5055357;28;20056;-76
2021/04/08 01:05:51;;;;;;;18.77;2.40;;;;;;;-141.50;100.00;63355.56;5055303;28;20067;-77
2021/04/08 01:08:17;;;;;;;15.30;1.80;;;;;;;-141.50;100.00;63355.56;5072127;28;20507;-76
2021/04/08 01:10:46;;;;;;;12.52;1.80;;;;;;;-141.50;100.00;63355.56;5071901;28;20040;-76
2021/04/08 01:13:16;;;;;;;9.80;1.67;;;;;;;-141.50;100.00;63355.56;5073201;28;20064;-76
2021/04/08 01:15:43;;;;;;;8.10;2.03;;;;;;;-141.50;100.00;63355.56;5073325;28;20105;-75
2021/04/08 01:18:12;;;;;;;14.57;2.67;;;;;;;-141.50;100.00;63355.56;5072004;28;20135;-76
2021/04/08 01:20:58;;;;;;;12.88;2.00;;;;;;;-141.50;100.00;63355.56;5073231;28;20089;-77
2021/04/08 01:23:33;;;;;;;14.13;2.22;;;;;;;-141.50;100.00;63355.56;5071559;28;20041;-76
2021/04/08 01:26:15;;;;;;;9.57;2.05;;;;;;;-141.50;100.00;63355.56;5072138;28;20056;-75
2021/04/08 01:29:14;;;;;;;10.15;1.95;;;;;;;-141.50;100.00;63355.56;5055610;28;20076;-77
2021/04/08 01:31:43;;;;;;;7.43;1.88;;;;;;;-141.50;100.00;63355.56;5073280;28;20047;-76
2021/04/08 01:34:13;;;;;;;24.65;2.65;;;;;;;-141.50;100.00;63355.56;5072310;28;20454;-76
2021/04/08 01:36:42;;;;;;;12.65;1.80;;;;;;;-141.50;100.00;63355.56;5072896;28;20048;-77
2021/04/08 01:39:14;;;;;;;5.35;1.67;;;;;;;-141.50;100.00;63355.56;5072800;28;20068;-76
2021/04/08 01:41:43;;;;;;;14.15;2.50;;;;;;;-141.50;100.00;63355.56;5072417;28;20044;-76
2021/04/08 01:44:14;;;;;;;11.13;1.80;;;;;;;-141.50;100.00;63355.56;5073348;28;20051;-76
2021/04/08 01:46:43;;;;;;;9.52;1.65;;;;;;;-141.50;100.00;63355.56;5071949;28;20052;-76
2021/04/08 01:49:11;;;;;;;11.07;3.03;;;;;;;-141.50;100.00;63355.56;5073372;28;20049;-76
2021/04/08 01:51:37;;;;;;;9.65;2.10;;;;;;;-141.50;100.00;63355.56;5073110;28;20044;-76
2021/04/08 01:54:07;;;;;;;12.35;2.20;;;;;;;-141.50;100.00;63355.56;5073161;28;20450;-77
2021/04/08 01:56:36;;;;;;;11.52;2.00;;;;;;;-141.50;100.00;63355.56;5072057;28;20055;-77
2021/04/08 01:59:04;;;;;;;12.15;2.15;;;;;;;-141.50;100.00;63355.56;5054217;28;20052;-77
2021/04/08 02:01:31;;;;;;;13.52;1.80;;;;;;;-141.50;100.00;63355.56;5070896;28;20032;-77
2021/04/08 02:03:57;;;;;;;9.90;1.75;;;;;;;-141.50;100.00;63355.56;5072192;28;20128;-77
2021/04/08 02:06:29;;;;;;;15.00;1.77;;;;;;;-141.50;100.00;63355.56;5070947;28;20044;-77
2021/04/08 02:08:57;;;;;;;11.90;1.77;;;;;;;-141.50;100.00;63355.56;5070870;28;20044;-77
2021/04/08 02:11:25;;;;;;;10.43;2.08;;;;;;;-141.50;100.00;63355.56;5071266;28;20522;-77
2021/04/08 02:13:55;;;;;;;8.23;1.80;;;;;;;-141.50;100.00;63355.56;5071900;28;20067;-77
2021/04/08 02:16:21;;;;;;;12.50;1.60;;;;;;;-141.50;100.00;63355.56;5070462;28;20044;-77
2021/04/08 02:18:49;;;;;;;7.93;1.95;;;;;;;-141.50;100.00;63355.56;5070568;28;20384;-77
2021/04/08 02:21:18;;;;;;;17.60;2.00;;;;;;;-141.50;100.00;63355.56;5071395;28;20045;-77
2021/04/08 02:23:46;;;;;;;9.90;1.67;;;;;;;-141.50;100.00;63355.56;5072598;28;20051;-77
2021/04/08 02:26:17;;;;;;;10.68;1.70;;;;;;;-141.50;100.00;63355.56;5073315;28;20276;-77
2021/04/08 02:28:45;;;;;;;12.00;1.60;;;;;;;-141.50;100.00;63355.56;5071781;28;20052;-77
2021/04/08 02:31:11;;;;;;;8.05;1.60;;;;;;;-141.50;100.00;63355.56;5072327;28;20059;-76
2021/04/08 02:33:40;;;;;;;13.77;1.88;;;;;;;-141.50;100.00;63355.56;5070292;28;20090;-76
2021/04/08 02:36:07;;;;;;;7.82;1.65;;;;;;;-141.50;100.00;63355.56;5071512;28;20194;-77
2021/04/08 02:38:35;;;;;;;13.48;2.00;;;;;;;-141.50;100.00;63355.56;5071681;28;20114;-76
2021/04/08 02:41:09;;;;;;;13.23;2.40;;;;;;;-141.50;100.00;63355.56;5070515;28;20469;-77
2021/04/08 02:43:36;;;;;;;8.43;1.80;;;;;;;-141.50;100.00;63355.56;5071799;28;20040;-77
2021/04/08 02:46:03;;;;;;;12.07;1.90;;;;;;;-141.50;100.00;63355.56;5070984;28;20048;-76
2021/04/08 02:48:32;;;;;;;13.27;1.63;;;;;;;-141.50;100.00;63355.56;5070632;28;20040;-77
2021/04/08 02:51:04;;;;;;;14.32;2.28;;;;;;;-141.50;100.00;63355.56;5070450;28;20101;-77
2021/04/08 02:53:51;;;;;;;16.55;1.75;;;;;;;-141.50;100.00;63355.56;5070177;28;20059;-78
2021/04/08 02:56:29;;;;;;;8.07;2.15;;;;;;;-141.50;100.00;63355.56;5069760;28;20044;-77
2021/04/08 02:59:04;;;;;;;8.65;1.77;;;;;;;-141.50;100.00;63355.56;5069809;28;20036;-77
2021/04/08 03:01:31;;;;;;;14.65;2.33;;;;;;;-141.50;100.00;63355.56;5071253;28;20491;-78
2021/04/08 03:03:59;;;;;;;14.00;2.33;;;;;;;-141.50;100.00;63355.56;5069395;28;20048;-77
2021/04/08 03:06:26;;;;;;;10.02;2.00;;;;;;;-141.50;100.00;63355.56;5070890;28;20048;-77
2021/04/08 03:08:55;;;;;;;15.05;2.90;;;;;;;-141.50;100.00;63355.56;5069961;28;20044;-75
2021/04/08 03:11:25;;;;;;;10.43;2.30;;;;;;;-141.50;100.00;63355.56;5052789;28;20071;-76
2021/04/08 03:13:54;;;;;;;14.20;2.15;;;;;;;-141.50;100.00;63355.56;5070579;28;20349;-76
2021/04/08 03:16:24;;;;;;;10.60;2.17;;;;;;;-141.50;100.00;63355.56;5069227;28;20055;-75
2021/04/08 03:18:54;;;;;;;11.38;2.40;;;;;;;-141.50;100.00;63355.56;5070399;28;20167;-75
2021/04/08 03:21:25;;;;;;;11.13;2.22;;;;;;;-141.50;100.00;63355.56;5070354;28;20113;-77
2021/04/08 03:23:53;;;;;;;9.13;2.00;;;;;;;-141.50;100.00;63355.56;5069356;28;20044;-76
2021/04/08 03:26:21;;;;;;;10.07;2.67;;;;;;;-141.50;100.00;63355.56;5070002;28;20047;-75
2021/04/08 03:28:49;;;;;;;13.02;2.15;;;;;;;-141.50;100.00;63355.56;5069122;28;20577;-75
2021/04/08 03:31:15;;;;;;;10.45;2.20;;;;;;;-141.50;100.00;63355.56;5070892;28;20040;-76
2021/04/08 03:33:43;;;;;;;10.70;2.20;;;;;;;-141.50;100.00;63355.56;5068964;28;20072;-76
2021/04/08 03:36:10;;;;;;;9.73;2.17;;;;;;;-141.50;100.00;63355.56;5069123;28;20078;-76
2021/04/08 03:38:36;;;;;;;11.98;2.70;;;;;;;-141.50;100.00;63355.56;5070004;28;20051;-76
2021/04/08 03:41:03;;;;;;;10.30;2.60;;;;;;;-141.50;100.00;63355.56;5080664;28;20040;-76
2021/04/08 03:43:30;;;;;;;8.60;2.47;;;;;;;-141.50;100.00;63355.56;5083718;28;20052;-76
2021/04/08 03:46:01;;;;;;;12.35;2.55;;;;;;;-141.50;100.00;63355.56;5091194;28;20052;-75
2021/04/08 03:48:31;;;;;;;9.10;2.30;;;;;;;-141.50;100.00;63355.56;5089415;28;20044;-75
2021/04/08 03:50:57;;;;;;;12.63;2.45;;;;;;;-141.50;100.00;63355.56;5090429;28;20044;-77
2021/04/08 03:53:24;;;;;;;15.88;3.20;;;;;;;-141.50;100.00;63355.56;5088911;28;20036;-77
2021/04/08 03:55:51;;;;;;;8.23;2.70;;;;;;;-141.50;100.00;63355.56;5081801;28;20131;-75
2021/04/08 03:58:18;;;;;;;12.45;3.10;;;;;;;-141.50;100.00;63355.56;5090659;28;20093;-76
2021/04/08 04:00:44;;;;;;;15.38;3.00;;;;;;;-141.50;100.00;63355.56;5090433;28;20055;-76
2021/04/08 04:03:12;;;;;;;13.07;3.28;;;;;;;-141.50;100.00;63355.56;5089772;28;20062;-77
2021/04/08 04:05:40;;;;;;;13.80;2.97;;;;;;;-141.50;100.00;63355.56;5090405;28;20491;-75
2021/04/08 04:08:07;;;;;;;9.57;2.80;;;;;;;-141.50;100.00;63355.56;5089404;28;20051;-75
2021/04/08 04:10:41;;;;;;;13.07;2.70;;;;;;;-141.50;100.00;63355.56;5090271;28;20487;-75
2021/04/08 04:13:10;;;;;;;10.40;2.50;;;;;;;-141.50;100.00;63355.56;5076252;28;20036;-75
2021/04/08 04:15:38;;;;;;;17.08;3.60;;;;;;;-141.50;100.00;63355.56;5081701;28;20117;-76
2021/04/08 04:18:06;;;;;;;10.85;2.47;;;;;;;-141.50;100.00;63355.56;5080619;28;20082;-77
2021/04/08 04:20:36;;;;;;;14.68;2.97;;;;;;;-141.50;100.00;63355.56;5090190;28;20039;-76
2021/04/08 04:23:06;;;;;;;16.80;2.80;;;;;;;-141.50;100.00;63355.56;5089937;28;20044;-76
2021/04/08 04:25:32;;;;;;;10.60;2.67;;;;;;;-141.50;100.00;63355.56;5089248;28;20357;-78
2021/04/08 04:27:58;;;;;;;10.32;3.00;;;;;;;-141.50;100.00;63355.56;5080849;28;20052;-74
2021/04/08 04:30:25;;;;;;;12.95;3.03;;;;;;;-141.50;100.00;63355.56;5072542;28;20048;-75
2021/04/08 04:32:55;;;;;;;11.98;2.70;;;;;;;-141.50;100.00;63355.56;5090390;28;20040;-75
2021/04/08 04:35:22;;;;;;;14.43;2.75;;;;;;;-141.50;100.00;63355.56;5092999;28;20406;-75
2021/04/08 04:37:48;;;;;;;19.02;3.25;;;;;;;-141.50;100.00;63355.56;5106073;28;20116;-76
2021/04/08 04:40:17;;;;;;;12.77;2.30;;;;;;;-141.50;100.00;63355.56;5095760;28;20047;-76
2021/04/08 04:42:43;;;;;;;19.50;2.90;;;;;;;-141.50;100.00;63355.56;5091807;28;20044;-77
2021/04/08 04:45:11;;;;;;;9.73;2.70;;;;;;;-141.50;100.00;63355.56;5091565;28;20411;-76
2021/04/08 04:47:41;;;;;;;8.65;2.53;;;;;;;-141.50;100.00;63355.56;5090187;28;20048;-75
2021/04/08 04:50:09;;;;;;;13.10;3.30;;;;;;;-141.50;100.00;63355.56;5091445;28;20101;-76
2021/04/08 04:52:35;;;;;;;13.75;2.72;;;;;;;-141.50;100.00;63355.56;5098734;28;20036;-75
2021/04/08 04:55:02;;;;;;;15.32;2.80;;;;;;;-141.50;100.00;63355.56;5094411;28;20054;-74
2021/04/08 04:57:29;;;;;;;12.65;2.85;;;;;;;-141.50;100.00;63355.56;5068706;28;20040;-75
2021/04/08 04:59:55;;;;;;;10.57;3.10;;;;;;;-141.50;100.00;63355.56;5065560;28;20041;-75
2021/04/08 05:02:21;;;;;;;8.93;2.75;;;;;;;-141.50;100.00;63355.56;5073480;28;20048;-76
2021/04/08 05:04:48;;;;;;;12.95;2.75;;;;;;;-141.50;100.00;63355.56;5085939;28;20040;-75
2021/04/08 05:07:14;;;;;;;16.88;3.15;;;;;;;-141.50;100.00;63355.56;5086845;28;20048;-75
2021/04/08 05:09:43;;;;;;;12.35;2.85;;;;;;;-141.50;100.00;63355.56;5066538;28;20464;-75
2021/04/08 05:12:09;;;;;;;15.70;3.03;;;;;;;-141.50;100.00;63355.56;5066817;28;20044;-75
2021/04/08 05:14:35;;;;;;;8.43;2.25;;;;;;;-141.50;100.00;63355.56;5066581;28;20041;-75
2021/04/08 05:17:01;;;;;;;15.45;3.08;;;;;;;-141.50;100.00;63355.56;5065314;28;20157;-75
2021/04/08 05:19:27;;;;;;;8.70;2.67;;;;;;;-141.50;100.00;63355.56;5064886;28;20086;-75
2021/04/08 05:21:53;;;;;;;11.75;2.88;;;;;;;-141.50;100.00;63355.56;5070628;28;20060;-74
2021/04/08 05:24:19;;;;;;;16.48;3.10;;;;;;;-141.50;100.00;63355.56;5078736;28;20044;-74
2021/04/08 05:26:46;;;;;;;14.15;2.70;;;;;;;-141.50;100.00;63355.56;5087469;28;20056;-75
2021/04/08 05:29:12;;;;;;;16.25;3.15;;;;;;;-141.50;100.00;63355.56;5063632;28;20052;-75
2021/04/08 05:31:38;;;;;;;11.73;2.85;;;;;;;-141.50;100.00;63355.56;5066122;28;20495;-76
2021/04/08 05:34:05;;;;;;;14.13;3.08;;;;;;;-141.50;100.00;63355.56;5065616;28;20575;-75
2021/04/08 05:36:31;;;;;;;12.70;2.80;;;;;;;-141.50;100.00;63355.56;5065597;28;20261;-75
2021/04/08 05:38:58;;;;;;;8.63;2.45;;;;;;;-141.50;100.00;63355.56;5067179;28;20036;-75
2021/04/08 05:41:24;;;;;;;18.15;3.38;;;;;;;-141.50;100.00;63355.56;5056909;28;20039;-75
2021/04/08 05:43:50;;;;;;;15.15;2.83;;;;;;;-141.50;100.00;63355.56;5046458;28;20048;-75
2021/04/08 05:46:16;;;;;;;11.65;2.65;;;;;;;-141.50;100.00;63355.56;5054817;28;20048;-75
2021/04/08 05:48:45;;;;;;;14.23;2.95;;;;;;;-141.50;100.00;63355.56;5056235;28;20049;-75
2021/04/08 05:51:11;;;;;;;11.57;3.35;;;;;;;-141.50;100.00;63355.56;5061553;28;20070;-75
2021/04/08 05:53:37;;;;;;;15.85;2.78;;;;;;;-141.50;100.00;63355.56;5075785;28;20682;-75
2021/04/08 05:56:04;;;;;;;15.40;3.00;;;;;;;-141.50;100.00;63355.56;5070225;28;20045;-75
2021/04/08 05:58:31;;;;;;;15.65;2.85;;;;;;;-141.50;100.00;63355.56;5068307;28;20102;-75
2021/04/08 06:00:57;;;;;;;14.55;2.80;;;;;;;-141.50;100.00;63355.56;5070825;28;20044;-75
2021/04/08 06:03:23;;;;;;;11.90;2.83;;;;;;;-141.50;100.00;63355.56;5069870;28;20052;-75
2021/04/08 06:05:50;;;;;;;12.70;2.72;;;;;;;-141.50;100.00;63355.56;5070693;28;20492;-75
2021/04/08 06:08:16;;;;;;;6.78;3.13;;;;;;;-141.50;100.00;63355.56;5073586;28;20074;-74
2021/04/08 06:10:42;;;;;;;16.33;3.88;;;;;;;-141.50;100.00;63355.56;5069318;28;20059;-75
2021/04/08 06:13:08;;;;;;;14.52;2.83;;;;;;;-141.50;100.00;63355.56;5070526;28;20048;-75
2021/04/08 06:15:34;;;;;;;14.98;3.10;;;;;;;-141.50;100.00;63355.56;5069529;28;20044;-74
2021/04/08 06:18:03;;;;;;;10.18;2.88;;;;;;;-141.50;100.00;63355.56;5069565;28;20128;-75
2021/04/08 06:20:30;;;;;;;27.65;3.65;;;;;;;-141.50;100.00;63355.56;5074076;28;20059;-75
2021/04/08 06:23:03;;;;;;;15.55;3.58;;;;;;;-141.50;100.00;63355.56;5070864;28;20076;-76
2021/04/08 06:25:32;;;;;;;21.42;3.90;;;;;;;-141.50;100.00;63355.56;5071729;28;20079;-75
2021/04/08 06:27:58;;;;;;;15.85;3.13;;;;;;;-141.50;100.00;63355.56;5071595;28;20094;-76
2021/04/08 06:30:24;;;;;;;18.85;3.47;;;;;;;-141.50;100.00;63355.56;5069752;28;20563;-75
2021/04/08 06:32:52;;;;;;;20.05;3.25;;;;;;;-141.50;100.00;63355.56;5051391;28;20055;-76
2021/04/08 06:35:20;;;;;;;9.80;2.90;;;;;;;-141.50;100.00;63355.56;5069003;28;20049;-75
2021/04/08 06:37:46;;;;;;;10.27;3.20;;;;;;;-141.50;100.00;63355.56;5064260;28;20071;-75
2021/04/08 06:40:13;;;;;;;8.90;2.60;;;;;;;-141.50;100.00;63355.56;5051244;28;20126;-74
2021/04/08 06:42:42;;;;;;;9.98;3.30;;;;;;;-141.50;100.00;63355.56;5086475;22;20071;-78
2021/04/08 06:45:10;;;;;;;12.15;3.00;;;;;;;-141.50;100.00;63355.56;5071490;28;20582;-77
2021/04/08 06:47:58;;;;;;;23.08;3.50;;;;;;;-141.50;100.00;63355.56;5026526;28;20048;-77
2021/04/08 06:50:31;;;;;;;18.33;3.58;;;;;;;-141.50;100.00;63355.56;5068501;28;20047;-77
2021/04/08 06:52:58;;;;;;;16.52;3.42;;;;;;;-141.50;100.00;63355.56;5068515;28;20059;-78
2021/04/08 06:55:24;;;;;;;11.45;3.20;;;;;;;-141.50;100.00;63355.56;5057868;28;20508;-77
2021/04/08 06:57:51;;;;;;;20.92;3.45;;;;;;;-141.50;100.00;63355.56;5050285;28;20798;-77
2021/04/08 07:00:18;;;;;;;14.60;3.17;;;;;;;-141.50;100.00;63355.56;5057915;28;20511;-77
2021/04/08 07:02:45;;;;;;;13.57;3.45;;;;;;;-141.50;100.00;63355.56;5067372;28;20047;-77
2021/04/08 07:05:12;;;;;;;14.82;2.78;;;;;;;-141.50;100.00;63355.56;5067531;28;20139;-78
2021/04/08 07:07:38;;;;;;;15.95;3.50;;;;;;;-141.50;100.00;63355.56;5061491;28;20483;-77
2021/04/08 07:10:07;;;;;;;19.20;4.57;;;;;;;-141.50;100.00;63355.56;5063210;28;20064;-77
2021/04/08 07:12:33;;;;;;;10.73;2.55;;;;;;;-141.50;100.00;63355.56;5032511;28;20040;-78
2021/04/08 07:15:00;;;;;;;9.52;3.00;;;;;;;-141.50;100.00;63355.56;5067169;28;20049;-78
2021/04/08 07:17:27;;;;;;;15.13;3.03;;;;;;;-141.50;100.00;63355.56;5062695;28;20148;-77
2021/04/08 07:19:56;;;;;;;15.45;3.10;;;;;;;-141.50;100.00;63355.56;5061319;28;20364;-77
2021/04/08 07:22:24;;;;;;;9.05;3.05;;;;;;;-141.50;100.00;63355.56;5054185;28;20467;-76
2021/04/08 07:24:51;;;;;;;17.20;3.72;;;;;;;-141.50;100.00;63355.56;5066022;28;20541;-78
2021/04/08 07:27:23;;;;;;;20.10;3.00;;;;;;;-141.50;100.00;63355.56;5067029;28;20067;-77
2021/04/08 07:29:58;;;;;;;18.75;3.38;;;;;;;-141.50;100.00;63355.56;5032151;28;20144;-78
2021/04/08 07:32:31;;;;;;;16.45;3.53;;;;;;;-141.50;100.00;63355.56;5048820;28;20041;-76
2021/04/08 07:35:01;;;;;;;11.48;2.97;;;;;;;-141.50;100.00;63355.56;5066575;28;20076;-77
2021/04/08 07:37:32;;;;;;;20.80;3.17;;;;;;;-141.50;100.00;63355.56;5048799;28;20049;-77
2021/04/08 07:40:01;;;;;;;20.73;4.00;;;;;;;-141.50;100.00;63355.56;5047682;28;20270;-78
2021/04/08 07:42:31;;;;;;;15.75;2.83;;;;;;;-141.50;100.00;63355.56;5049191;28;20040;-77
2021/04/08 07:45:03;;;;;;;15.15;2.88;;;;;;;-141.50;100.00;63355.56;5048640;28;20049;-76
2021/04/08 07:47:40;;;;;;;14.13;3.28;;;;;;;-141.50;100.00;63355.56;5051966;28;20056;-77
2021/04/08 07:50:10;;;;;;;18.25;3.42;;;;;;;-141.50;100.00;63355.56;5047683;28;20158;-77
2021/04/08 07:52:37;;;;;;;16.35;3.55;;;;;;;-141.50;100.00;63355.56;5042966;28;20071;-76
2021/04/08 07:55:08;;;;;;;18.45;3.40;;;;;;;-141.50;100.00;63355.56;5066270;28;20496;-75
2021/04/08 07:58:01;;;;;;;16.13;3.05;;;;;;;-141.50;100.00;63355.56;5065560;28;20052;-77
2021/04/08 08:00:38;;;;;;;14.50;3.75;;;;;;;-141.50;100.00;63355.56;5031360;28;20050;-77
2021/04/08 08:03:06;;;;;;;15.82;3.33;;;;;;;-141.50;100.00;63355.56;5047876;28;20051;-76
2021/04/08 08:05:41;;;;;;;14.23;2.88;;;;;;;-141.50;100.00;63355.56;5047609;28;20055;-76
2021/04/08 08:08:16;;;;;;;14.85;3.10;;;;;;;-141.50;100.00;63355.56;5046297;28;20119;-76
2021/04/08 08:10:59;;;;;;;13.55;2.60;;;;;;;-141.50;100.00;63355.56;5066493;28;20059;-77
2021/04/08 08:13:53;;;;;;;8.95;2.83;;;;;;;-141.50;100.00;63355.56;5048242;28;20048;-76
2021/04/08 08:16:25;;;;;;;19.08;4.00;;;;;;;-141.50;100.00;63355.56;5048057;28;20431;-76
2021/04/08 08:18:52;;;;;;;11.70;3.03;;;;;;;-141.50;100.00;63355.56;5065080;28;20052;-76
2021/04/08 08:21:27;;;;;;;16.67;2.90;;;;;;;-141.50;100.00;63355.56;5066246;28;20123;-77
2021/04/08 08:23:58;;;;;;;12.85;3.20;;;;;;;-141.50;100.00;63355.56;5046978;28;20044;-76
2021/04/08 08:26:33;;;;;;;27.80;3.15;;;;;;;-141.50;100.00;63355.56;5065677;28;20045;-76
2021/04/08 08:29:21;;;;;;;7.67;2.70;;;;;;;-141.50;100.00;63355.56;5047204;28;20063;-76
2021/04/08 08:31:54;;;;;;;13.02;3.38;;;;;;;-141.50;100.00;63355.56;5047320;28;20113;-76
2021/04/08 08:34:32;;;;;;;10.82;2.83;;;;;;;-141.50;100.00;63355.56;5047681;28;20049;-77
2021/04/08 08:37:04;;;;;;;11.82;3.10;;;;;;;-141.50;100.00;63355.56;5065570;28;20045;-77
2021/04/08 08:39:36;;;;;;;15.70;3.10;;;;;;;-141.50;100.00;63355.56;5047151;28;20135;-77
2021/04/08 08:42:05;;;;;;;13.93;3.30;;;;;;;-141.50;100.00;63355.56;5063952;28;20040;-77
2021/04/08 08:44:34;;;;;;;7.63;2.28;;;;;;;-141.50;100.00;63355.56;5046474;28;20048;-77
2021/04/08 08:47:00;;;;;;;19.63;3.55;;;;;;;-141.50;100.00;63355.56;5031249;28;20056;-77
2021/04/08 08:49:34;;;;;;;11.45;3.22;;;;;;;-141.50;100.00;63355.56;5048068;28;20125;-77
2021/04/08 08:52:02;;;;;;;12.88;2.72;;;;;;;-141.50;100.00;63355.56;5066407;28;20106;-77
2021/04/08 08:54:31;;;;;;;10.90;2.80;;;;;;;-141.50;100.00;63355.56;5048947;28;20729;-77
2021/04/08 08:56:59;;;;;;;16.70;3.40;;;;;;;-141.50;100.00;63355.56;5064674;28;20049;-76
2021/04/08 08:59:27;;;;;;;12.57;3.05;;;;;;;-141.50;100.00;63355.56;5030804;28;20048;-76
2021/04/08 09:01:55;;;;;;;12.27;3.17;;;;;;;-141.50;100.00;63355.56;5066027;28;20046;-76
2021/04/08 09:04:22;;;;;;;12.43;3.03;;;;;;;-141.50;100.00;63355.56;5030907;28;20072;-77
2021/04/08 09:06:56;;;;;;;10.95;2.65;;;;;;;-141.50;100.00;63355.56;5049597;28;20037;-78
2021/04/08 09:09:25;;;;;;;10.82;2.78;;;;;;;-141.50;100.00;63355.56;5031296;28;20546;-78
2021/04/08 09:11:57;;;;;;;10.23;2.47;;;;;;;-141.50;100.00;63355.56;5050833;28;20060;-77
2021/04/08 09:14:24;;;;;;;7.90;2.47;;;;;;;-141.50;100.00;63355.56;5050592;28;20057;-78
2021/04/08 09:16:51;;;;;;;13.73;2.80;;;;;;;-141.50;100.00;63355.56;5031570;28;20044;-78
2021/04/08 09:19:34;;;;;;;8.98;2.78;;;;;;;-141.50;100.00;63355.56;5048938;28;20056;-78
2021/04/08 09:22:10;;;;;;;12.88;2.55;;;;;;;-141.50;100.00;63355.56;5069975;28;20044;-77
2021/04/08 09:24:44;;;;;;;11.32;2.25;;;;;;;-141.50;100.00;63355.56;5035337;28;20684;-78
2021/04/08 09:27:11;;;;;;;10.98;1.75;;;;;;;-141.50;100.00;63355.56;5070810;28;20048;-77
2021/04/08 09:29:38;;;;;;;9.77;2.25;;;;;;;-141.50;100.00;63355.56;5071083;28;20052;-78
2021/04/08 09:32:23;;;;;;;12.77;2.40;;;;;;;-141.50;100.00;63355.56;5052633;28;20055;-77
2021/04/08 09:35:04;;;;;;;10.73;2.65;;;;;;;-141.50;100.00;63355.56;5036282;28;20044;-78
2021/04/08 09:37:45;;;;;;;14.75;2.53;;;;;;;-141.50;100.00;63355.56;5053525;28;20075;-78
2021/04/08 09:40:21;;;;;;;13.43;2.53;;;;;;;-141.50;100.00;63355.56;5036708;28;20078;-77
2021/04/08 09:42:57;;;;;;;7.57;2.30;;;;;;;-141.50;100.00;63355.56;5067856;28;20046;-79
2021/04/08 09:45:24;;;;;;;10.55;2.53;;;;;;;-141.50;100.00;63355.56;5016117;28;20045;-77
2021/04/08 09:48:16;;;;;;;10.63;3.25;;;;;;;-141.50;100.00;63355.56;5050812;28;20049;-77
2021/04/08 09:50:55;;;;;;;9.10;2.75;;;;;;;-141.50;100.00;63355.56;5038981;28;20079;-77
2021/04/08 09:53:43;;;;;;;9.70;2.45;;;;;;;-141.50;100.00;63355.56;5047681;28;20048;-76
2021/04/08 09:56:09;;;;;;;13.75;2.95;;;;;;;-141.50;100.00;63355.56;5050986;28;20060;-77
2021/04/08 09:58:37;;;;;;;11.40;2.50;;;;;;;-141.50;100.00;63355.56;5049820;28;20466;-76
2021/04/08 10:01:10;;;;;;;10.05;2.30;;;;;;;-141.50;100.00;63355.56;5051163;28;20510;-78
2021/04/08 10:03:41;;;;;;;8.40;3.05;;;;;;;-141.50;100.00;63355.56;5068781;28;20040;-77
2021/04/08 10:06:18;;;;;;;10.23;2.95;;;;;;;-141.50;100.00;63355.56;5053189;28;20060;-78
2021/04/08 10:08:44;;;;;;;9.65;2.50;;;;;;;-141.50;100.00;63355.56;5049383;28;20059;-77
2021/04/08 10:11:11;;;;;;;9.43;2.28;;;;;;;-141.50;100.00;63355.56;5049407;28;20089;-77
2021/04/08 10:13:40;;;;;;;8.60;2.60;;;;;;;-141.50;100.00;63355.56;5050301;28;20060;-77
2021/04/08 10:16:09;;;;;;;11.48;3.03;;;;;;;-141.50;100.00;63355.56;5051299;28;20044;-77
2021/04/08 10:18:39;;;;;;;14.88;3.10;;;;;;;-141.50;100.00;63355.56;5052492;28;20048;-77
2021/04/08 10:21:09;;;;;;;10.95;3.13;;;;;;;-141.50;100.00;63355.56;5053480;28;20040;-77
2021/04/08 10:23:38;;;;;;;9.27;2.65;;;;;;;-141.50;100.00;63355.56;5056675;28;20044;-78
2021/04/08 10:26:13;;;;;;;13.57;3.33;;;;;;;-141.50;100.00;63355.56;5071385;28;20048;-77
2021/04/08 10:28:48;;;;;;;10.20;2.80;;;;;;;-141.50;100.00;63355.56;5057122;28;20047;-77
2021/04/08 10:31:19;;;;;;;9.85;2.40;;;;;;;-141.50;100.00;63355.56;5073309;28;20071;-78
2021/04/08 10:33:47;;;;;;;6.97;2.00;;;;;;;-141.50;100.00;63355.56;5049626;28;20466;-79
2021/04/08 10:36:49;;;;;;;7.03;1.65;;;;;;;-141.50;100.00;63355.56;5056850;28;20040;-78
2021/04/08 10:39:17;;;;;;;10.85;2.08;;;;;;;-141.50;100.00;63355.56;5003466;28;20059;-76
2021/04/08 10:41:57;;;;;;;7.40;1.83;;;;;;;-141.50;100.00;63355.56;5071915;28;20048;-78
2021/04/08 10:44:23;;;;;;;9.88;2.00;;;;;;;-141.50;100.00;63355.56;5036480;28;20499;-79
2021/04/08 10:46:52;;;;;;;8.82;1.95;;;;;;;-141.50;100.00;63355.56;5058287;28;20044;-78
2021/04/08 10:49:24;;;;;;;7.30;2.00;;;;;;;-141.50;100.00;63355.56;5064813;28;20066;-79
2021/04/08 10:51:52;;;;;;;9.00;1.85;;;;;;;-141.50;100.00;63355.56;5079182;28;20059;-77
2021/04/08 10:54:19;;;;;;;8.00;2.08;;;;;;;-141.50;100.00;63355.56;5053440;28;20098;-76
2021/04/08 10:56:49;;;;;;;11.98;1.90;;;;;;;-141.50;100.00;63355.56;5071424;28;20079;-76
2021/04/08 10:59:18;;;;;;;6.60;2.15;;;;;;;-141.50;100.00;63355.56;5035972;28;20076;-77
2021/04/08 11:01:45;;;;;;;7.13;1.70;;;;;;;-141.50;100.00;63355.56;5073226;28;20187;-76
2021/04/08 11:04:11;;;;;;;6.40;1.10;;;;;;;-141.50;100.00;63355.56;5072334;28;20048;-76
2021/04/08 11:06:38;;;;;;;3.25;0.90;;;;;;;-141.50;100.00;63355.56;5052605;28;20629;-77
2021/04/08 11:09:05;;;;;;;7.80;1.23;;;;;;;-141.50;100.00;63355.56;5070684;28;20048;-77
2021/04/08 11:11:32;;;;;;;5.07;1.25;;;;;;;-141.50;100.00;63355.56;5065934;28;20059;-76
2021/04/08 11:13:58;;;;;;;6.05;1.70;;;;;;;-141.50;100.00;63355.56;5031043;28;20053;-77
2021/04/08 11:16:51;;;;;;;5.00;1.70;;;;;;;-141.50;100.00;63355.56;5048182;28;20043;-77